Aultman, Pennsylvania
Current Conditions -  °F | °C
As of 4:15 PM on Monday 22 Dec 2014 (Local Time) from KIDI Reporting Station
Scattered Clouds Scattered Clouds  
Wind Chill: -1°   Ceiling: Unl
Heat Index:   Visibility: 9mi
Dew Point: -2°   Wind: 13mph
Humidity: 70%   Direction: 120°ESE
Pressure: 30.06"   Gusts: NA
Location:  40.56°N, 79.26°W
Report Text: KIDI 222115Z AUTO 12011KT 9SM SCT075 03/M02 A3006 RMK A01
Loading
Personal Weather Stations






























Interactive Weather Map New forecast layout! Learn more

10-Day Weather Forecast

Advertisements
Track Severe Weather on mobile